createdAt,value
2023-01-01T00:00:02.030Z,132.67
2023-01-01T00:02:47.356Z,146.97
2023-01-01T00:05:33.038Z,181.13
2023-01-01T00:08:18.744Z,231.27
2023-01-01T00:11:05.958Z,197.20
2023-01-01T00:13:51.380Z,213.80
2023-01-01T00:16:36.988Z,177.03
2023-01-01T00:19:22.441Z,141.60
2023-01-01T00:22:35.230Z,121.13
2023-01-01T00:25:17.754Z,101.83
2023-01-01T00:28:03.313Z,85.23
2023-01-01T00:30:48.481Z,78.13
2023-01-01T00:33:34.184Z,69.67
2023-01-01T00:36:21.028Z,63.93
2023-01-01T00:39:06.359Z,66.77
2023-01-01T00:41:51.791Z,73.57
2023-01-01T00:44:37.259Z,70.40
2023-01-01T00:47:22.930Z,70.90
2023-01-01T00:50:08.446Z,63.43
2023-01-01T00:52:53.725Z,63.50
2023-01-01T00:55:42.975Z,68.40
2023-01-01T00:58:28.434Z,83.23
2023-01-01T01:01:13.829Z,65.53
2023-01-01T01:03:59.266Z,55.93
2023-01-01T01:06:44.864Z,55.77
2023-01-01T01:09:30.401Z,32.97
2023-01-01T01:12:17.812Z,36.77
2023-01-01T01:15:05.779Z,63.63
2023-01-01T01:17:51.780Z,63.13
2023-01-01T01:20:37.382Z,38.03
2023-01-01T01:23:22.704Z,41.93
2023-01-01T01:26:10.358Z,40.33
2023-01-01T01:28:56.082Z,36.53
2023-01-01T01:31:41.608Z,46.33
2023-01-01T01:34:28.360Z,60.70
2023-01-01T01:37:14.280Z,71.73
2023-01-01T01:39:59.616Z,64.80
2023-01-01T01:42:49.268Z,71.83
2023-01-01T01:45:34.578Z,57.10
2023-01-01T01:48:20.303Z,49.33
2023-01-01T01:51:06.180Z,48.00
2023-01-01T01:53:56.336Z,53.97
2023-01-01T01:56:52.121Z,49.67
2023-01-01T01:59:42.763Z,41.63
2023-01-01T02:02:50.953Z,89.20
2023-01-01T02:05:37.182Z,65.70
2023-01-01T02:08:23.628Z,69.30
2023-01-01T02:11:09.161Z,42.77
2023-01-01T02:13:56.618Z,46.17
2023-01-01T02:17:37.102Z,50.77
2023-01-01T02:20:43.290Z,36.47
2023-01-01T02:23:54.326Z,34.87
2023-01-01T02:26:51.653Z,35.47
2023-01-01T02:29:48.842Z,31.03
2023-01-01T02:32:49.447Z,38.20
2023-01-01T02:35:45.667Z,31.83
2023-01-01T02:38:35.226Z,34.43
2023-01-01T02:41:26.138Z,34.93
2023-01-01T02:44:12.742Z,30.83
2023-01-01T02:47:07.331Z,38.87
2023-01-01T02:50:03.860Z,46.45
2023-01-01T02:53:11.706Z,42.90
2023-01-01T02:56:11.007Z,32.97
2023-01-01T02:59:33.266Z,34.90
2023-01-01T03:02:51.562Z,37.93
2023-01-01T03:06:19.766Z,27.00
2023-01-01T03:09:24.729Z,26.83
2023-01-01T03:12:20.907Z,32.53
2023-01-01T03:15:37.294Z,27.73
2023-01-01T03:18:31.456Z,25.67
2023-01-01T03:21:22.214Z,29.23
2023-01-01T03:24:09.769Z,54.20
2023-01-01T03:27:02.309Z,33.37
2023-01-01T03:29:51.324Z,31.97
2023-01-01T03:33:01.379Z,17.57
2023-01-01T03:36:00.738Z,24.17
2023-01-01T03:39:02.003Z,22.60
2023-01-01T03:41:54.990Z,19.17
2023-01-01T03:44:48.740Z,21.47
2023-01-01T03:47:34.302Z,22.05
2023-01-01T03:50:23.103Z,22.47
2023-01-01T03:53:25.339Z,22.27
2023-01-01T03:56:19.723Z,24.00
2023-01-01T03:59:16.639Z,21.55
2023-01-01T04:02:07.233Z,23.17
2023-01-01T04:04:52.938Z,20.20
2023-01-01T04:07:39.124Z,22.87
2023-01-01T04:10:25.694Z,22.60
2023-01-01T04:13:11.433Z,23.17
2023-01-01T04:15:56.857Z,27.73
2023-01-01T04:18:42.248Z,23.97
2023-01-01T04:21:32.447Z,25.07
2023-01-01T04:24:18.053Z,26.77
2023-01-01T04:27:04.686Z,24.30
2023-01-01T04:29:49.892Z,27.70
2023-01-01T04:32:35.568Z,26.53
2023-01-01T04:35:20.834Z,17.60
2023-01-01T04:38:06.579Z,19.40
2023-01-01T04:40:59.619Z,16.43
2023-01-01T04:43:51.817Z,21.00
2023-01-01T04:46:37.094Z,15.73
2023-01-01T04:49:22.699Z,15.10
2023-01-01T04:52:08.050Z,16.23
2023-01-01T04:54:53.642Z,20.80
2023-01-01T04:57:39.312Z,14.80
2023-01-01T05:00:24.681Z,19.47
2023-01-01T05:03:12.922Z,18.53
2023-01-01T05:06:06.671Z,18.53
2023-01-01T05:08:57.133Z,18.13
2023-01-01T05:11:42.606Z,19.40
2023-01-01T05:14:28.011Z,19.30
2023-01-01T05:17:13.536Z,23.73
2023-01-01T05:20:00.395Z,28.43
2023-01-01T05:22:47.325Z,29.93
2023-01-01T05:25:32.546Z,31.80
2023-01-01T05:28:17.926Z,28.00
2023-01-01T05:31:09.104Z,23.33
2023-01-01T05:33:55.291Z,30.90
2023-01-01T05:36:40.597Z,30.20
2023-01-01T05:39:25.832Z,24.97
2023-01-01T05:42:11.442Z,24.90
2023-01-01T05:44:56.870Z,20.87
2023-01-01T05:47:42.388Z,23.47
2023-01-01T05:50:27.917Z,23.33
2023-01-01T05:53:13.178Z,25.53
2023-01-01T05:55:59.672Z,22.87
2023-01-01T05:58:46.149Z,21.53
2023-01-01T06:01:32.343Z,24.93
2023-01-01T06:04:17.719Z,25.57
2023-01-01T06:07:03.103Z,22.50
2023-01-01T06:09:50.168Z,21.40
2023-01-01T06:12:35.781Z,23.27
2023-01-01T06:15:21.301Z,17.77
2023-01-01T06:18:06.570Z,24.43
2023-01-01T06:20:52.463Z,19.50
2023-01-01T06:23:38.242Z,22.07
2023-01-01T06:26:29.717Z,18.33
2023-01-01T06:29:15.554Z,18.93
2023-01-01T06:32:01.023Z,18.27
2023-01-01T06:34:46.575Z,21.73
2023-01-01T06:37:31.973Z,20.30
2023-01-01T06:40:17.473Z,22.20
2023-01-01T06:43:02.649Z,19.40
2023-01-01T06:45:48.291Z,17.77
2023-01-01T06:48:36.424Z,23.30
2023-01-01T06:51:25.024Z,19.43
2023-01-01T06:54:11.272Z,17.87
2023-01-01T06:56:56.490Z,15.03
2023-01-01T06:59:41.900Z,16.47
2023-01-01T07:02:27.550Z,18.00
2023-01-01T07:05:12.997Z,17.20
2023-01-01T07:07:58.504Z,15.47
2023-01-01T07:10:43.989Z,19.00
2023-01-01T07:13:30.484Z,18.83
2023-01-01T07:16:16.047Z,20.73
2023-01-01T07:19:01.621Z,21.07
2023-01-01T07:21:55.008Z,23.63
2023-01-01T07:24:40.290Z,23.77
2023-01-01T07:27:25.869Z,20.43
2023-01-01T07:30:11.756Z,22.13
2023-01-01T07:32:57.091Z,16.83
2023-01-01T07:35:44.975Z,23.23
2023-01-01T07:38:30.291Z,19.27
2023-01-01T07:41:15.806Z,18.93
2023-01-01T07:44:01.335Z,20.10
2023-01-01T07:46:47.178Z,19.17
2023-01-01T07:49:32.432Z,21.83
2023-01-01T07:52:18.228Z,16.17
2023-01-01T07:55:03.812Z,21.77
2023-01-01T07:57:49.509Z,21.93
2023-01-01T08:00:34.736Z,19.33
2023-01-01T08:03:20.546Z,19.40
2023-01-01T08:06:10.341Z,18.83
2023-01-01T08:08:55.831Z,21.63
2023-01-01T08:11:41.575Z,18.20
2023-01-01T08:14:27.113Z,17.40
2023-01-01T08:17:12.687Z,18.37
2023-01-01T08:19:58.624Z,19.00
2023-01-01T08:22:44.328Z,20.27
2023-01-01T08:25:29.684Z,18.57
2023-01-01T08:28:14.994Z,19.87
2023-01-01T08:31:00.382Z,19.10
2023-01-01T08:33:46.179Z,19.50
2023-01-01T08:36:31.685Z,19.87
2023-01-01T08:39:17.372Z,21.63
2023-01-01T08:42:05.770Z,21.07
2023-01-01T08:44:55.526Z,23.47
2023-01-01T08:47:40.816Z,26.00
2023-01-01T08:50:26.707Z,19.33
2023-01-01T08:53:12.058Z,19.80
2023-01-01T08:56:08.879Z,20.33
2023-01-01T08:58:58.735Z,20.00
2023-01-01T09:01:47.410Z,18.67
2023-01-01T09:04:32.887Z,17.60
2023-01-01T09:07:18.415Z,16.47
2023-01-01T09:10:04.400Z,17.70
2023-01-01T09:12:49.679Z,15.97
2023-01-01T09:15:35.170Z,14.57
2023-01-01T09:18:20.723Z,15.70
2023-01-01T09:21:06.386Z,17.53
2023-01-01T09:23:51.664Z,19.60
2023-01-01T09:26:37.238Z,18.70
2023-01-01T09:29:22.525Z,19.43
2023-01-01T09:32:08.129Z,16.90
2023-01-01T09:34:53.616Z,19.13
2023-01-01T09:37:39.229Z,16.67
2023-01-01T09:40:59.790Z,16.87
2023-01-01T09:43:50.910Z,15.73
2023-01-01T09:46:36.778Z,15.50
2023-01-01T09:49:48.484Z,17.30
2023-01-01T09:53:00.602Z,17.27
2023-01-01T09:56:00.554Z,15.90
2023-01-01T09:58:46.032Z,13.27
2023-01-01T10:01:40.549Z,14.43
2023-01-01T10:04:56.479Z,14.90
2023-01-01T10:07:56.284Z,14.48
2023-01-01T10:11:05.938Z,12.30
2023-01-01T10:13:53.553Z,13.57
2023-01-01T10:16:49.220Z,14.13
2023-01-01T10:19:38.175Z,13.13
2023-01-01T10:22:36.446Z,10.52
2023-01-01T10:25:31.645Z,11.00
2023-01-01T10:28:29.846Z,14.50
2023-01-01T10:31:25.984Z,12.10
2023-01-01T10:34:29.223Z,13.02
2023-01-01T10:37:15.411Z,16.10
2023-01-01T10:40:07.788Z,15.77
2023-01-01T10:42:55.759Z,16.77
2023-01-01T10:45:55.038Z,14.52
2023-01-01T10:48:44.608Z,17.58
2023-01-01T10:51:30.217Z,16.80
2023-01-01T10:54:36.836Z,16.35
2023-01-01T10:57:28.151Z,19.08
2023-01-01T11:00:22.475Z,16.65
2023-01-01T11:03:20.627Z,16.77
2023-01-01T11:06:10.537Z,15.38
2023-01-01T11:08:58.322Z,14.25
2023-01-01T11:11:46.834Z,17.13
2023-01-01T11:14:51.182Z,13.98
2023-01-01T11:17:37.547Z,18.38
2023-01-01T11:20:22.917Z,11.65
2023-01-01T11:23:19.567Z,14.52
2023-01-01T11:26:06.589Z,11.60
2023-01-01T11:29:02.929Z,9.43
2023-01-01T11:31:48.986Z,6.93
2023-01-01T11:34:43.564Z,7.95
2023-01-01T11:37:34.235Z,6.85
2023-01-01T11:40:35.808Z,7.03
2023-01-01T11:43:38.377Z,7.20
2023-01-01T11:46:25.212Z,9.57
2023-01-01T11:49:21.374Z,6.95
2023-01-01T11:52:37.274Z,8.23
2023-01-01T11:55:37.887Z,8.68
2023-01-01T11:58:26.488Z,6.78
2023-01-01T12:01:42.028Z,8.27
2023-01-01T12:07:20.312Z,9.07
2023-01-01T12:10:24.507Z,6.13
2023-01-01T12:13:19.808Z,7.07
2023-01-01T12:16:13.479Z,6.00
2023-01-01T12:19:35.583Z,7.40
2023-01-01T12:22:21.183Z,5.78
2023-01-01T12:25:10.995Z,6.90
2023-01-01T12:28:17.281Z,8.05
2023-01-01T12:31:08.611Z,8.63
2023-01-01T12:34:21.571Z,8.10
2023-01-01T12:37:31.469Z,8.75
2023-01-01T12:40:43.635Z,7.72
2023-01-01T12:44:06.911Z,9.48
2023-01-01T12:47:14.780Z,12.70
2023-01-01T12:50:21.645Z,11.73
2023-01-01T12:53:35.727Z,9.98
2023-01-01T12:56:46.295Z,7.68
2023-01-01T12:59:39.863Z,11.45
2023-01-01T13:02:33.117Z,8.48
2023-01-01T13:05:39.671Z,7.03
2023-01-01T13:08:24.961Z,8.23
2023-01-01T13:11:12.484Z,6.93
2023-01-01T13:13:58.158Z,7.28
2023-01-01T13:16:52.698Z,6.88
2023-01-01T13:22:44.850Z,7.30
2023-01-01T13:25:30.651Z,6.85
2023-01-01T13:28:16.280Z,7.03
2023-01-01T13:31:01.493Z,6.47
2023-01-01T13:34:26.200Z,5.22
2023-01-01T13:37:11.369Z,4.85
2023-01-01T13:40:02.411Z,5.93
2023-01-01T13:42:58.987Z,6.68
2023-01-01T13:46:13.623Z,4.78
2023-01-01T13:49:21.896Z,6.30
2023-01-01T13:52:13.180Z,9.93
2023-01-01T13:55:10.380Z,9.88
2023-01-01T13:58:26.299Z,12.25
2023-01-01T14:01:59.192Z,11.07
2023-01-01T14:04:53.347Z,11.90
2023-01-01T14:07:54.024Z,11.82
2023-01-01T14:10:39.340Z,11.45
2023-01-01T14:13:30.074Z,10.43
2023-01-01T14:16:16.207Z,12.73
2023-01-01T14:19:03.471Z,10.63
2023-01-01T14:21:48.931Z,14.50
2023-01-01T14:24:40.920Z,12.30
2023-01-01T14:27:28.526Z,11.60
2023-01-01T14:30:18.686Z,10.48
2023-01-01T14:33:04.035Z,9.00
2023-01-01T14:35:57.147Z,9.38
2023-01-01T14:38:47.631Z,8.88
2023-01-01T14:41:39.284Z,9.93
2023-01-01T14:44:29.865Z,9.18
2023-01-01T14:47:34.349Z,10.82
2023-01-01T14:50:27.485Z,9.55
2023-01-01T14:53:18.762Z,9.52
2023-01-01T14:56:07.145Z,11.20
2023-01-01T14:58:53.350Z,9.52
2023-01-01T15:01:39.851Z,9.38
2023-01-01T15:04:28.307Z,12.95
2023-01-01T15:07:24.444Z,11.98
2023-01-01T15:10:12.699Z,12.50
2023-01-01T15:12:58.520Z,10.68
2023-01-01T15:15:46.617Z,10.88
2023-01-01T15:18:44.124Z,10.35
2023-01-01T15:21:38.775Z,10.82
2023-01-01T15:24:27.456Z,12.10
2023-01-01T15:27:26.925Z,13.90
2023-01-01T15:30:26.673Z,9.98
2023-01-01T15:33:17.161Z,11.35
2023-01-01T15:36:04.003Z,11.43
2023-01-01T15:38:50.783Z,10.45
2023-01-01T15:41:44.384Z,13.43
2023-01-01T15:44:33.636Z,10.13
2023-01-01T15:47:25.544Z,12.18
2023-01-01T15:50:18.047Z,10.13
2023-01-01T15:53:10.470Z,9.60
2023-01-01T15:56:05.005Z,11.73
2023-01-01T15:58:56.382Z,11.20
2023-01-01T16:01:43.266Z,10.63
2023-01-01T16:04:29.540Z,16.48
2023-01-01T16:07:19.621Z,16.42
2023-01-01T16:10:13.195Z,18.27
2023-01-01T16:12:59.281Z,11.77
2023-01-01T16:15:57.418Z,9.55
2023-01-01T16:18:43.604Z,10.00
2023-01-01T16:21:31.818Z,13.00
2023-01-01T16:24:18.569Z,9.30
2023-01-01T16:27:03.982Z,11.10
2023-01-01T16:29:54.639Z,19.02
2023-01-01T16:32:40.857Z,31.35
2023-01-01T16:35:26.265Z,22.33
2023-01-01T16:38:12.067Z,23.50
2023-01-01T16:40:57.534Z,20.67
2023-01-01T16:43:44.562Z,16.60
2023-01-01T16:46:30.037Z,16.58
2023-01-01T16:49:15.574Z,20.23
2023-01-01T16:52:01.107Z,14.02
2023-01-01T16:54:46.548Z,14.63
2023-01-01T16:57:35.619Z,12.80
2023-01-01T17:00:21.443Z,12.98
2023-01-01T17:03:06.904Z,10.13
2023-01-01T17:05:52.107Z,12.10
2023-01-01T17:08:38.561Z,11.00
2023-01-01T17:11:25.049Z,11.43
2023-01-01T17:14:10.675Z,12.15
2023-01-01T17:16:56.499Z,14.77
2023-01-01T17:19:41.703Z,16.15
2023-01-01T17:22:33.893Z,18.02
2023-01-01T17:25:19.512Z,16.40
2023-01-01T17:28:05.021Z,13.77
2023-01-01T17:30:50.461Z,15.95
2023-01-01T17:33:36.331Z,16.35
2023-01-01T17:36:21.605Z,16.02
2023-01-01T17:39:07.627Z,26.95
2023-01-01T17:41:53.173Z,33.30
2023-01-01T17:44:38.705Z,27.02
2023-01-01T17:47:27.918Z,29.02
2023-01-01T17:50:16.681Z,32.47
2023-01-01T17:53:02.204Z,28.65
2023-01-01T17:55:47.713Z,29.52
2023-01-01T17:58:35.684Z,31.15
2023-01-01T18:01:24.830Z,30.52
2023-01-01T18:04:10.697Z,28.80
2023-01-01T18:06:59.660Z,27.90
2023-01-01T18:09:48.111Z,25.67
2023-01-01T18:12:33.619Z,18.27
2023-01-01T18:15:19.204Z,17.93
2023-01-01T18:18:04.815Z,13.02
2023-01-01T18:20:50.041Z,14.10
2023-01-01T18:23:37.446Z,9.82
2023-01-01T18:26:24.883Z,12.30
2023-01-01T18:29:10.552Z,12.50
2023-01-01T18:31:55.851Z,12.05
2023-01-01T18:34:41.411Z,14.03
2023-01-01T18:37:27.055Z,13.68
2023-01-01T18:40:15.657Z,14.55
2023-01-01T18:43:23.258Z,14.65
2023-01-01T18:46:11.595Z,14.30
2023-01-01T18:48:59.371Z,14.00
2023-01-01T18:51:50.319Z,15.20
2023-01-01T18:54:35.894Z,17.88
2023-01-01T18:57:29.196Z,13.83
2023-01-01T19:00:25.881Z,15.68
2023-01-01T19:03:22.827Z,13.80
2023-01-01T19:06:27.114Z,13.97
2023-01-01T19:09:23.345Z,12.02
2023-01-01T19:12:12.696Z,12.13
2023-01-01T19:15:19.034Z,11.27
2023-01-01T19:18:14.938Z,13.00
2023-01-01T19:21:12.280Z,12.60
2023-01-01T19:24:00.779Z,14.77
2023-01-01T19:26:46.847Z,16.13
2023-01-01T19:29:37.504Z,12.30
2023-01-01T19:32:23.391Z,13.70
2023-01-01T19:35:13.345Z,12.60
2023-01-01T19:38:02.085Z,14.53
2023-01-01T19:40:47.656Z,12.47
2023-01-01T19:43:32.944Z,13.30
2023-01-01T19:46:18.449Z,16.43
2023-01-01T19:49:04.415Z,13.83
2023-01-01T19:51:49.957Z,12.47
2023-01-01T19:54:35.172Z,14.90
2023-01-01T19:57:21.416Z,12.37
2023-01-01T20:00:07.567Z,14.00
2023-01-01T20:02:53.030Z,13.10
2023-01-01T20:05:38.485Z,14.20
2023-01-01T20:08:23.938Z,13.60
2023-01-01T20:11:09.623Z,13.43
2023-01-01T20:13:55.046Z,12.13
2023-01-01T20:16:40.580Z,12.63
2023-01-01T20:19:25.897Z,13.90
2023-01-01T20:22:11.226Z,17.57
2023-01-01T20:24:56.957Z,15.37
2023-01-01T20:28:02.224Z,17.27
2023-01-01T20:30:47.735Z,17.53
2023-01-01T20:33:33.276Z,17.37
2023-01-01T20:36:37.379Z,14.73
2023-01-01T20:39:22.821Z,14.20
2023-01-01T20:42:08.325Z,11.13
2023-01-01T20:44:53.651Z,12.47
2023-01-01T20:47:39.298Z,12.80
2023-01-01T20:50:24.867Z,14.40
2023-01-01T20:53:10.372Z,12.67
2023-01-01T20:55:55.974Z,12.33
2023-01-01T20:58:48.026Z,14.27
2023-01-01T21:01:35.618Z,12.95
2023-01-01T21:04:21.088Z,13.67
2023-01-01T21:07:08.300Z,11.93
2023-01-01T21:09:53.435Z,12.40
2023-01-01T21:12:39.238Z,13.93
2023-01-01T21:15:24.741Z,12.63
2023-01-01T21:18:12.511Z,13.00
2023-01-01T21:20:57.863Z,12.13
2023-01-01T21:23:44.907Z,14.57
2023-01-01T21:26:35.505Z,15.50
2023-01-01T21:29:23.983Z,12.13
2023-01-01T21:32:16.721Z,13.93
2023-01-01T21:35:02.253Z,12.90
2023-01-01T21:37:52.752Z,12.03
2023-01-01T21:40:41.160Z,11.47
2023-01-01T21:43:31.590Z,10.50
2023-01-01T21:46:35.708Z,11.33
2023-01-01T21:49:34.521Z,11.63
2023-01-01T21:52:24.223Z,11.70
2023-01-01T21:55:23.545Z,12.87
2023-01-01T21:58:32.843Z,10.33
2023-01-01T22:01:23.879Z,13.37
2023-01-01T22:04:09.665Z,14.17
2023-01-01T22:07:00.206Z,10.27
2023-01-01T22:09:46.943Z,9.50
2023-01-01T22:12:36.124Z,11.33
2023-01-01T22:15:27.816Z,11.80
2023-01-01T22:18:19.231Z,12.17
2023-01-01T22:21:05.025Z,11.37
2023-01-01T22:23:55.391Z,11.43
2023-01-01T22:26:41.083Z,11.43
2023-01-01T22:29:27.028Z,11.50
2023-01-01T22:32:30.491Z,9.67
2023-01-01T22:35:19.873Z,9.77
2023-01-01T22:38:06.934Z,12.33
2023-01-01T22:40:52.637Z,11.00
2023-01-01T22:43:40.676Z,10.37
2023-01-01T22:46:36.536Z,10.70
2023-01-01T22:49:40.412Z,15.23
2023-01-01T22:52:25.655Z,11.63
2023-01-01T22:55:11.466Z,12.47
2023-01-01T22:57:57.017Z,13.57
2023-01-01T23:00:42.584Z,13.33
2023-01-01T23:03:28.339Z,12.43
2023-01-01T23:06:13.823Z,10.87
2023-01-01T23:08:59.251Z,12.33
2023-01-01T23:11:44.722Z,13.63
2023-01-01T23:14:48.620Z,13.33
2023-01-01T23:17:33.983Z,10.30
2023-01-01T23:20:19.632Z,10.33
2023-01-01T23:23:05.067Z,11.73
2023-01-01T23:25:50.725Z,8.67
2023-01-01T23:28:37.117Z,11.10
2023-01-01T23:31:25.647Z,12.43
2023-01-01T23:34:12.115Z,8.60
2023-01-01T23:36:58.380Z,10.20
2023-01-01T23:39:43.925Z,12.70
2023-01-01T23:42:29.383Z,10.53
2023-01-01T23:45:14.667Z,12.03
2023-01-01T23:48:00.212Z,10.37
2023-01-01T23:50:46.984Z,10.97
2023-01-01T23:53:32.453Z,8.93
2023-01-01T23:56:17.646Z,10.47
2023-01-01T23:59:03.443Z,9.07
